createdAt,value
2018-06-19T00:02:08.405Z,6.07
2018-06-19T00:04:40.136Z,6.00
2018-06-19T00:07:11.808Z,4.53
2018-06-19T00:09:43.513Z,4.50
2018-06-19T00:12:15.299Z,6.13
2018-06-19T00:14:46.932Z,7.77
2018-06-19T00:17:18.550Z,5.73
2018-06-19T00:19:53.556Z,6.30
2018-06-19T00:22:25.192Z,6.43
2018-06-19T00:24:56.419Z,4.40
2018-06-19T00:27:27.923Z,6.30
2018-06-19T00:29:59.548Z,5.43
2018-06-19T00:32:31.162Z,5.17
2018-06-19T00:35:02.696Z,6.17
2018-06-19T00:37:34.324Z,5.33
2018-06-19T00:40:05.953Z,4.70
2018-06-19T00:42:37.580Z,4.57
2018-06-19T00:45:09.270Z,4.97
2018-06-19T00:47:41.020Z,4.67
2018-06-19T00:50:12.642Z,6.10
2018-06-19T00:52:44.300Z,4.67
2018-06-19T00:55:15.945Z,4.73
2018-06-19T00:57:47.604Z,6.33
2018-06-19T01:00:19.184Z,4.30
2018-06-19T01:02:50.467Z,4.47
2018-06-19T01:05:21.961Z,4.03
2018-06-19T01:07:53.832Z,4.43
2018-06-19T01:10:25.438Z,4.43
2018-06-19T01:12:57.038Z,4.83
2018-06-19T01:15:28.641Z,5.03
2018-06-19T01:18:00.259Z,4.13
2018-06-19T01:20:31.840Z,4.30
2018-06-19T01:23:03.536Z,5.43
2018-06-19T01:25:35.140Z,4.50
2018-06-19T01:28:06.868Z,4.57
2018-06-19T01:30:38.440Z,5.37
2018-06-19T01:33:10.025Z,5.50
2018-06-19T01:35:41.259Z,8.00
2018-06-19T01:38:12.282Z,6.07
2018-06-19T01:40:43.840Z,5.73
2018-06-19T01:43:15.060Z,6.13
2018-06-19T01:45:46.456Z,6.67
2018-06-19T01:48:18.004Z,9.00
2018-06-19T01:50:49.584Z,7.57
2018-06-19T01:53:21.272Z,6.27
2018-06-19T01:55:52.832Z,7.57
2018-06-19T01:58:24.051Z,6.47
2018-06-19T02:00:55.408Z,6.00
2018-06-19T02:03:27.204Z,6.60
2018-06-19T02:05:58.812Z,6.00
2018-06-19T02:08:30.704Z,6.87
2018-06-19T02:11:02.320Z,6.33
2018-06-19T02:13:33.924Z,6.40
2018-06-19T02:16:05.050Z,5.83
2018-06-19T02:18:36.007Z,6.20
2018-06-19T02:21:06.990Z,8.70
2018-06-19T02:23:38.413Z,6.80
2018-06-19T02:26:09.552Z,8.77
2018-06-19T02:28:40.488Z,7.40
2018-06-19T02:31:11.853Z,7.90
2018-06-19T02:33:43.112Z,7.20
2018-06-19T02:36:14.460Z,7.57
2018-06-19T02:38:45.999Z,8.33
2018-06-19T02:41:17.237Z,7.17
2018-06-19T02:43:48.731Z,11.20
2018-06-19T02:46:20.340Z,8.43
2018-06-19T02:48:51.940Z,7.97
2018-06-19T02:51:23.240Z,7.10
2018-06-19T02:53:55.073Z,8.03
2018-06-19T02:56:26.801Z,6.80
2018-06-19T02:58:58.437Z,6.47
2018-06-19T03:01:30.003Z,6.47
2018-06-19T03:04:01.686Z,6.43
2018-06-19T03:06:33.401Z,6.33
2018-06-19T03:09:06.813Z,6.30
2018-06-19T03:11:38.686Z,6.70
2018-06-19T03:14:10.244Z,6.77
2018-06-19T03:16:41.409Z,8.00
2018-06-19T03:19:12.431Z,6.93
2018-06-19T03:21:43.801Z,5.73
2018-06-19T03:24:15.535Z,6.40
2018-06-19T03:26:47.177Z,6.27
2018-06-19T03:29:18.869Z,5.90
2018-06-19T03:31:50.021Z,6.30
2018-06-19T03:34:21.425Z,6.30
2018-06-19T03:36:53.013Z,7.20
2018-06-19T03:39:24.674Z,6.73
2018-06-19T03:41:56.256Z,8.93
2018-06-19T03:44:28.017Z,6.53
2018-06-19T03:46:59.608Z,7.67
2018-06-19T03:49:31.278Z,6.57
2018-06-19T03:52:02.845Z,7.20
2018-06-19T03:54:34.481Z,5.90
2018-06-19T03:57:05.711Z,6.23
2018-06-19T03:59:37.165Z,7.63
2018-06-19T04:02:08.771Z,6.67
2018-06-19T04:04:40.501Z,6.90
2018-06-19T04:07:11.655Z,5.93
2018-06-19T04:09:43.056Z,7.40
2018-06-19T04:12:14.680Z,7.33
2018-06-19T04:14:45.981Z,5.27
2018-06-19T04:17:22.853Z,6.23
2018-06-19T04:19:55.492Z,6.13
2018-06-19T04:22:28.640Z,6.73
2018-06-19T04:25:00.345Z,5.53
2018-06-19T04:27:31.930Z,5.70
2018-06-19T04:30:03.195Z,5.70
2018-06-19T04:32:34.149Z,6.00
2018-06-19T04:35:05.110Z,6.17
2018-06-19T04:37:36.485Z,7.13
2018-06-19T04:40:08.141Z,6.90
2018-06-19T04:42:39.764Z,6.50
2018-06-19T04:45:11.398Z,6.70
2018-06-19T04:47:42.997Z,6.60
2018-06-19T04:50:14.964Z,7.20
2018-06-19T04:52:46.601Z,6.40
2018-06-19T04:55:18.225Z,8.03
2018-06-19T04:57:49.420Z,5.77
2018-06-19T05:00:20.996Z,5.17
2018-06-19T05:02:52.607Z,8.23
2018-06-19T05:05:24.425Z,6.00
2018-06-19T05:07:56.173Z,6.87
2018-06-19T05:10:27.504Z,7.00
2018-06-19T05:12:58.925Z,6.53
2018-06-19T05:15:30.605Z,6.57
2018-06-19T05:18:02.711Z,5.80
2018-06-19T05:20:34.957Z,6.23
2018-06-19T05:23:06.441Z,6.80
2018-06-19T05:25:37.457Z,7.57
2018-06-19T05:28:09.229Z,7.03
2018-06-19T05:30:41.004Z,6.70
2018-06-19T05:33:14.230Z,6.73
2018-06-19T05:35:47.752Z,9.37
2018-06-19T05:38:19.088Z,6.60
2018-06-19T05:40:50.627Z,7.23
2018-06-19T05:43:22.032Z,8.90
2018-06-19T05:45:53.141Z,7.83
2018-06-19T05:48:24.496Z,9.53
2018-06-19T05:50:55.767Z,5.83
2018-06-19T05:53:26.700Z,7.23
2018-06-19T05:55:57.760Z,6.57
2018-06-19T05:58:29.133Z,6.07
2018-06-19T06:01:01.100Z,7.07
2018-06-19T06:03:32.780Z,6.27
2018-06-19T06:06:04.031Z,7.07
2018-06-19T06:08:35.368Z,6.00
2018-06-19T06:11:07.010Z,10.87
2018-06-19T06:13:38.622Z,6.90
2018-06-19T06:16:10.304Z,6.53
2018-06-19T06:18:41.904Z,6.23
2018-06-19T06:21:14.152Z,6.23
2018-06-19T06:23:45.331Z,6.37
2018-06-19T06:26:16.380Z,7.30
2018-06-19T06:28:47.332Z,6.60
2018-06-19T06:31:18.802Z,6.50
2018-06-19T06:33:50.031Z,5.63
2018-06-19T06:36:21.316Z,8.13
2018-06-19T06:38:52.725Z,5.43
2018-06-19T06:41:24.424Z,6.00
2018-06-19T06:43:55.611Z,6.50
2018-06-19T06:46:27.719Z,10.00
2018-06-19T06:48:59.544Z,7.10
2018-06-19T06:51:31.304Z,6.33
2018-06-19T06:54:02.924Z,5.57
2018-06-19T06:56:34.652Z,6.33
2018-06-19T06:59:06.293Z,6.23
2018-06-19T07:01:37.688Z,5.87
2018-06-19T07:04:08.924Z,7.13
2018-06-19T07:06:40.408Z,6.00
2018-06-19T07:09:12.240Z,5.07
2018-06-19T07:11:43.748Z,5.07
2018-06-19T07:14:15.424Z,5.50
2018-06-19T07:16:47.135Z,5.73
2018-06-19T07:19:18.832Z,4.90
2018-06-19T07:21:50.996Z,5.50
2018-06-19T07:24:22.592Z,5.93
2018-06-19T07:26:53.744Z,7.43
2018-06-19T07:29:25.344Z,5.33
2018-06-19T07:31:56.955Z,5.40
2018-06-19T07:34:28.196Z,5.10
2018-06-19T07:36:59.744Z,5.17
2018-06-19T07:39:31.429Z,8.53
2018-06-19T07:42:03.094Z,5.00
2018-06-19T07:44:34.783Z,5.53
2018-06-19T07:47:06.496Z,5.30
2018-06-19T07:49:38.104Z,5.30
2018-06-19T07:52:09.364Z,6.47
2018-06-19T07:54:40.724Z,6.00
2018-06-19T07:57:12.030Z,5.20
2018-06-19T07:59:43.417Z,5.80
2018-06-19T08:02:15.059Z,6.13
2018-06-19T08:04:46.705Z,5.47
2018-06-19T08:07:17.979Z,5.07
2018-06-19T08:09:49.004Z,5.80
2018-06-19T08:12:20.482Z,7.90
2018-06-19T08:14:52.067Z,7.40
2018-06-19T08:17:23.596Z,6.77
2018-06-19T08:19:54.932Z,4.87
2018-06-19T08:22:26.624Z,5.27
2018-06-19T08:24:58.176Z,6.07
2018-06-19T08:27:29.788Z,7.00
2018-06-19T08:30:04.317Z,5.00
2018-06-19T08:32:35.702Z,5.00
2018-06-19T08:35:07.319Z,5.13
2018-06-19T08:37:39.076Z,5.93
2018-06-19T08:40:10.690Z,4.43
2018-06-19T08:42:42.435Z,5.00
2018-06-19T08:45:13.578Z,4.67
2018-06-19T08:47:45.005Z,4.50
2018-06-19T08:50:16.280Z,4.60
2018-06-19T08:52:47.684Z,5.43
2018-06-19T08:55:19.104Z,5.20
2018-06-19T08:57:50.496Z,5.67
2018-06-19T09:00:22.196Z,7.50
2018-06-19T09:02:53.784Z,5.77
2018-06-19T09:05:25.364Z,5.13
2018-06-19T09:07:56.724Z,6.20
2018-06-19T09:10:28.397Z,4.93
2018-06-19T09:12:59.609Z,7.90
2018-06-19T09:15:30.965Z,5.40
2018-06-19T09:18:02.302Z,5.33
2018-06-19T09:20:33.675Z,7.03
2018-06-19T09:23:05.477Z,8.10
2018-06-19T09:25:37.160Z,5.47
2018-06-19T09:28:08.819Z,6.03
2018-06-19T09:30:40.374Z,6.27
2018-06-19T09:33:12.084Z,5.73
2018-06-19T09:35:43.804Z,6.23
2018-06-19T09:38:15.039Z,5.50
2018-06-19T09:40:46.444Z,6.20
2018-06-19T09:43:18.551Z,6.53
2018-06-19T09:45:49.904Z,4.93
2018-06-19T09:48:21.699Z,4.50
2018-06-19T09:50:52.756Z,4.53
2018-06-19T09:53:24.260Z,5.93
2018-06-19T09:55:55.798Z,5.60
2018-06-19T09:58:27.320Z,7.57
2018-06-19T10:01:01.840Z,5.53
2018-06-19T10:03:34.972Z,5.20
2018-06-19T10:06:06.783Z,8.50
2018-06-19T10:08:38.714Z,7.70
2018-06-19T10:11:10.560Z,6.60
2018-06-19T10:13:42.483Z,7.13
2018-06-19T10:16:14.384Z,8.50
2018-06-19T10:18:46.180Z,6.53
2018-06-19T10:21:17.901Z,6.37
2018-06-19T10:23:49.634Z,7.13
2018-06-19T10:26:21.359Z,7.53
2018-06-19T10:28:53.077Z,7.93
2018-06-19T10:31:24.773Z,6.80
2018-06-19T10:33:56.568Z,6.73
2018-06-19T10:36:28.228Z,7.30
2018-06-19T10:38:59.904Z,7.23
2018-06-19T10:41:31.566Z,7.87
2018-06-19T10:44:03.277Z,8.03
2018-06-19T10:46:34.947Z,7.37
2018-06-19T10:49:06.604Z,8.20
2018-06-19T10:51:38.188Z,8.20
2018-06-19T10:54:09.885Z,7.60
2018-06-19T10:56:41.322Z,7.03
2018-06-19T10:59:12.795Z,6.23
2018-06-19T11:01:44.443Z,5.73
2018-06-19T11:04:16.160Z,6.23
2018-06-19T11:06:47.805Z,7.17
2018-06-19T11:09:19.557Z,5.73
2018-06-19T11:11:50.737Z,8.40
2018-06-19T11:14:21.794Z,5.33
2018-06-19T11:16:52.921Z,5.50
2018-06-19T11:19:24.420Z,6.53
2018-06-19T11:21:56.484Z,6.40
2018-06-19T11:24:28.146Z,6.83
2018-06-19T11:27:00.142Z,6.93
2018-06-19T11:29:31.952Z,9.67
2018-06-19T11:32:03.710Z,5.07
2018-06-19T11:34:35.756Z,5.73
2018-06-19T11:37:07.799Z,5.30
2018-06-19T11:39:39.195Z,5.87
2018-06-19T11:42:10.587Z,6.13
2018-06-19T11:44:42.197Z,5.90
2018-06-19T11:47:13.831Z,5.40
2018-06-19T11:49:45.484Z,5.13
2018-06-19T11:52:17.278Z,4.93
2018-06-19T11:54:48.896Z,4.90
2018-06-19T11:57:20.463Z,5.87
2018-06-19T11:59:52.057Z,4.90
2018-06-19T12:02:23.687Z,6.20
2018-06-19T12:04:55.387Z,6.60
2018-06-19T12:07:30.872Z,4.70
2018-06-19T12:10:02.656Z,5.83
2018-06-19T12:12:34.285Z,5.13
2018-06-19T12:15:06.088Z,6.33
2018-06-19T12:17:37.832Z,5.47
2018-06-19T12:20:10.197Z,7.63
2018-06-19T12:22:41.816Z,7.87
2018-06-19T12:25:13.500Z,6.17
2018-06-19T12:27:45.101Z,6.23
2018-06-19T12:30:16.297Z,4.53
2018-06-19T12:32:48.276Z,5.70
2018-06-19T12:35:20.040Z,6.17
2018-06-19T12:37:51.424Z,6.23
2018-06-19T12:40:23.096Z,5.17
2018-06-19T12:42:54.424Z,5.67
2018-06-19T12:45:25.419Z,4.93
2018-06-19T12:47:56.804Z,4.27
2018-06-19T12:51:46.014Z,4.83
2018-06-19T12:55:34.723Z,5.70
2018-06-19T12:58:07.188Z,5.73
2018-06-19T13:00:38.499Z,5.53
2018-06-19T13:03:26.701Z,4.47
2018-06-19T13:06:09.457Z,4.60
2018-06-19T13:08:40.884Z,4.40
2018-06-19T13:11:12.625Z,6.70
2018-06-19T13:13:54.764Z,4.87
2018-06-19T13:16:42.816Z,4.27
2018-06-19T13:19:30.884Z,4.43
2018-06-19T13:22:02.065Z,6.50
2018-06-19T13:24:33.119Z,3.87
2018-06-19T13:27:04.542Z,4.00
2018-06-19T13:29:51.391Z,4.40
2018-06-19T13:32:23.063Z,6.27
2018-06-19T13:34:54.911Z,6.37
2018-06-19T13:37:26.636Z,3.43
2018-06-19T13:41:19.584Z,6.27
2018-06-19T13:44:09.719Z,4.83
2018-06-19T13:46:41.202Z,4.00
2018-06-19T13:49:12.455Z,5.70
2018-06-19T13:51:43.504Z,6.23
2018-06-19T13:54:14.563Z,7.00
2018-06-19T13:56:55.516Z,3.50
2018-06-19T13:59:26.976Z,3.53
2018-06-19T14:01:58.339Z,4.40
2018-06-19T14:04:29.684Z,3.43
2018-06-19T14:07:01.306Z,3.73
2018-06-19T14:10:46.211Z,4.67
2018-06-19T14:13:17.214Z,3.93
2018-06-19T14:15:50.663Z,4.77
2018-06-19T14:18:22.904Z,4.63
2018-06-19T14:20:54.194Z,4.67
2018-06-19T14:23:25.598Z,4.83
2018-06-19T14:25:57.265Z,5.93
2018-06-19T14:28:28.905Z,4.60
2018-06-19T14:31:00.053Z,4.13
2018-06-19T14:33:34.532Z,3.27
2018-06-19T14:36:06.163Z,4.03
2018-06-19T14:38:37.732Z,3.40
2018-06-19T14:41:08.936Z,3.73
2018-06-19T14:43:39.931Z,3.57
2018-06-19T14:46:11.248Z,4.80
2018-06-19T14:48:42.871Z,3.10
2018-06-19T14:51:14.002Z,3.30
2018-06-19T14:53:45.124Z,3.20
2018-06-19T14:56:16.457Z,5.37
2018-06-19T14:58:47.717Z,3.27
2018-06-19T15:01:19.055Z,4.27
2018-06-19T15:03:50.771Z,3.53
2018-06-19T15:06:22.389Z,3.10
2018-06-19T15:08:53.987Z,3.53
2018-06-19T15:11:25.532Z,3.77
2018-06-19T15:13:57.349Z,3.53
2018-06-19T15:16:28.475Z,5.63
2018-06-19T15:18:59.861Z,4.37
2018-06-19T15:21:31.106Z,4.37
2018-06-19T15:24:03.216Z,4.60
2018-06-19T15:26:34.905Z,3.43
2018-06-19T15:29:06.261Z,3.03
2018-06-19T15:31:37.643Z,3.87
2018-06-19T15:34:09.420Z,4.37
2018-06-19T15:36:40.698Z,4.00
2018-06-19T15:39:13.460Z,8.80
2018-06-19T15:41:45.184Z,5.17
2018-06-19T15:44:16.956Z,4.37
2018-06-19T15:46:48.136Z,3.40
2018-06-19T15:49:19.298Z,3.67
2018-06-19T15:51:50.693Z,4.13
2018-06-19T15:54:21.954Z,3.10
2018-06-19T15:56:53.299Z,3.67
2018-06-19T15:59:24.604Z,4.03
2018-06-19T16:01:55.702Z,3.40
2018-06-19T16:04:27.215Z,4.17
2018-06-19T16:06:58.886Z,2.83
2018-06-19T16:09:30.553Z,3.23
2018-06-19T16:12:02.165Z,4.60
2018-06-19T16:14:33.846Z,5.13
2018-06-19T16:17:05.428Z,5.00
2018-06-19T16:19:37.077Z,5.10
2018-06-19T16:22:08.596Z,3.33
2018-06-19T16:24:40.304Z,3.33
2018-06-19T16:27:11.973Z,4.37
2018-06-19T16:29:43.605Z,3.87
2018-06-19T16:32:14.789Z,5.63
2018-06-19T16:34:46.309Z,3.53
2018-06-19T16:37:17.949Z,3.10
2018-06-19T16:39:49.683Z,4.33
2018-06-19T16:42:21.304Z,3.37
2018-06-19T16:44:52.924Z,5.37
2018-06-19T16:47:24.599Z,3.27
2018-06-19T16:49:56.224Z,3.90
2018-06-19T16:52:27.861Z,4.47
2018-06-19T16:54:59.451Z,5.03
2018-06-19T16:57:30.639Z,3.83
2018-06-19T17:00:02.433Z,6.43
2018-06-19T17:02:34.852Z,5.37
2018-06-19T17:05:06.537Z,6.13
2018-06-19T17:07:41.372Z,5.47
2018-06-19T17:10:14.343Z,3.90
2018-06-19T17:12:46.264Z,6.40
2018-06-19T17:15:17.528Z,3.60
2018-06-19T17:17:49.144Z,4.80
2018-06-19T17:20:20.949Z,5.43
2018-06-19T17:22:52.783Z,3.70
2018-06-19T17:25:25.213Z,3.63
2018-06-19T17:27:56.857Z,4.20
2018-06-19T17:30:28.093Z,4.20
2018-06-19T17:33:00.552Z,5.17
2018-06-19T17:35:32.488Z,3.70
2018-06-19T17:38:03.890Z,7.70
2018-06-19T17:40:35.623Z,4.60
2018-06-19T17:43:06.843Z,3.63
2018-06-19T17:45:37.814Z,5.27
2018-06-19T17:48:08.779Z,3.77
2018-06-19T17:50:39.894Z,4.33
2018-06-19T17:53:10.850Z,3.33
2018-06-19T17:55:42.302Z,4.03
2018-06-19T17:58:13.928Z,3.00
2018-06-19T18:00:45.596Z,3.90
2018-06-19T18:03:17.216Z,4.40
2018-06-19T18:05:48.899Z,4.00
2018-06-19T18:08:20.647Z,3.33
2018-06-19T18:10:51.886Z,4.53
2018-06-19T18:13:23.307Z,5.70
2018-06-19T18:15:55.490Z,3.30
2018-06-19T18:18:26.444Z,3.40
2018-06-19T18:20:58.985Z,4.17
2018-06-19T18:23:30.223Z,4.17
2018-06-19T18:26:01.785Z,2.93
2018-06-19T18:28:33.585Z,3.20
2018-06-19T18:31:05.359Z,4.53
2018-06-19T18:33:37.504Z,4.27
2018-06-19T18:36:09.394Z,4.87
2018-06-19T18:38:40.722Z,4.33
2018-06-19T18:41:12.748Z,3.70
2018-06-19T18:43:43.850Z,6.50
2018-06-19T18:46:15.448Z,4.40
2018-06-19T18:48:47.336Z,3.93
2018-06-19T18:51:19.116Z,3.97
2018-06-19T18:53:50.602Z,3.60
2018-06-19T18:56:22.541Z,4.57
2018-06-19T18:58:54.268Z,5.03
2018-06-19T19:01:26.010Z,4.17
2018-06-19T19:03:57.764Z,3.67
2018-06-19T19:06:31.159Z,3.87
2018-06-19T19:09:03.997Z,4.53
2018-06-19T19:11:35.655Z,5.00
2018-06-19T19:14:07.946Z,3.53
2018-06-19T19:16:44.501Z,3.43
2018-06-19T19:19:19.100Z,5.17
2018-06-19T19:21:50.654Z,3.47
2018-06-19T19:24:22.328Z,4.43
2018-06-19T19:26:58.945Z,4.70
2018-06-19T19:29:35.797Z,3.67
2018-06-19T19:32:07.158Z,3.73
2018-06-19T19:34:38.176Z,2.83
2018-06-19T19:37:15.496Z,3.53
2018-06-19T19:39:46.780Z,5.70
2018-06-19T19:42:18.327Z,4.00
2018-06-19T19:44:49.672Z,3.00
2018-06-19T19:47:25.866Z,4.50
2018-06-19T19:49:58.966Z,5.23
2018-06-19T19:52:30.180Z,3.17
2018-06-19T19:55:01.657Z,3.07
2018-06-19T19:57:40.300Z,5.80
2018-06-19T20:00:15.798Z,2.80
2018-06-19T20:02:47.276Z,3.67
2018-06-19T20:05:20.489Z,2.90
2018-06-19T20:07:51.685Z,3.17
2018-06-19T20:10:23.136Z,3.07
2018-06-19T20:12:54.416Z,6.13
2018-06-19T20:15:25.960Z,6.13
2018-06-19T20:17:57.565Z,3.67
2018-06-19T20:20:29.629Z,2.77
2018-06-19T20:23:01.310Z,3.97
2018-06-19T20:25:32.930Z,6.30
2018-06-19T20:28:04.084Z,4.53
2018-06-19T20:30:35.112Z,3.67
2018-06-19T20:33:07.236Z,2.90
2018-06-19T20:35:39.481Z,3.87
2018-06-19T20:38:11.133Z,2.90
2018-06-19T20:40:42.864Z,3.00
2018-06-19T20:43:14.087Z,3.07
2018-06-19T20:45:47.404Z,2.70
2018-06-19T20:48:19.119Z,7.43
2018-06-19T20:50:50.210Z,3.23
2018-06-19T20:53:21.171Z,3.33
2018-06-19T20:55:52.753Z,3.60
2018-06-19T20:58:24.396Z,3.93
2018-06-19T21:00:56.046Z,3.40
2018-06-19T21:03:27.509Z,3.77
2018-06-19T21:05:58.999Z,4.63
2018-06-19T21:08:40.295Z,3.43
2018-06-19T21:11:13.404Z,6.13
2018-06-19T21:13:45.119Z,4.03
2018-06-19T21:16:16.868Z,5.20
2018-06-19T21:18:48.231Z,3.40
2018-06-19T21:21:20.352Z,3.43
2018-06-19T21:23:50.498Z,5.00
2018-06-19T21:26:21.916Z,2.70
2018-06-19T21:28:53.364Z,3.53
2018-06-19T21:31:25.132Z,4.00
2018-06-19T21:33:56.772Z,4.47
2018-06-19T21:36:28.464Z,4.00
2018-06-19T21:38:59.691Z,4.60
2018-06-19T21:41:31.324Z,3.90
2018-06-19T21:44:03.006Z,2.90
2018-06-19T21:46:34.264Z,4.77
2018-06-19T21:49:06.496Z,5.07
2018-06-19T21:51:38.211Z,3.33
2018-06-19T21:54:09.936Z,3.57
2018-06-19T21:56:41.583Z,4.87
2018-06-19T21:59:13.487Z,3.80
2018-06-19T22:01:44.762Z,4.10
2018-06-19T22:04:16.208Z,4.17
2018-06-19T22:06:48.584Z,3.10
2018-06-19T22:09:20.216Z,5.37
2018-06-19T22:11:51.516Z,4.10
2018-06-19T22:14:22.980Z,4.57
2018-06-19T22:16:54.270Z,7.10
2018-06-19T22:19:25.399Z,4.57
2018-06-19T22:21:56.430Z,3.30
2018-06-19T22:24:27.883Z,4.43
2018-06-19T22:26:59.347Z,5.37
2018-06-19T22:29:30.400Z,3.30
2018-06-19T22:32:02.060Z,4.13
2018-06-19T22:34:33.694Z,3.90
2018-06-19T22:37:05.221Z,3.73
2018-06-19T22:39:36.467Z,4.60
2018-06-19T22:42:07.562Z,4.40
2018-06-19T22:44:38.982Z,3.53
2018-06-19T22:47:10.780Z,7.17
2018-06-19T22:49:43.421Z,4.10
2018-06-19T22:52:15.041Z,3.80
2018-06-19T22:54:46.712Z,3.97
2018-06-19T22:57:18.420Z,3.80
2018-06-19T22:59:50.243Z,3.60
2018-06-19T23:02:21.881Z,3.60
2018-06-19T23:04:53.639Z,3.73
2018-06-19T23:07:25.285Z,3.80
2018-06-19T23:09:57.073Z,5.73
2018-06-19T23:12:28.825Z,4.90
2018-06-19T23:15:00.585Z,4.20
2018-06-19T23:17:32.918Z,4.30
2018-06-19T23:20:04.631Z,4.00
2018-06-19T23:22:35.813Z,4.13
2018-06-19T23:25:07.280Z,5.57
2018-06-19T23:27:38.501Z,4.13
2018-06-19T23:30:10.141Z,7.00
2018-06-19T23:32:42.821Z,5.87
2018-06-19T23:35:14.438Z,3.77
2018-06-19T23:37:46.240Z,4.30
2018-06-19T23:40:17.776Z,4.27
2018-06-19T23:42:49.356Z,4.50
2018-06-19T23:45:20.792Z,6.63
2018-06-19T23:47:52.481Z,4.57
2018-06-19T23:50:24.176Z,4.30
2018-06-19T23:52:55.523Z,4.87
2018-06-19T23:55:26.548Z,5.53
2018-06-19T23:57:57.880Z,4.97
